Overview Statistics Trail Chart Weather Telemetry Raw packets
 

This is the latest recevied weather packets stored in our database for station/object DL7KAW-10. If no packets are shown the sender has not sent any weather packets the latest 10 day(s).

<< 19 20 21 22 23 24 25 >>
Time Temp. Humidity Pressure Rain* Wind** Luminosity Snow
1788257806 21.67° C 66% 1015.9 hPa - - - -
1788256906 21.67° C 65% 1015.9 hPa - - - -
1788256005 21.67° C 63% 1015.8 hPa - - - -
1788255105 21.67° C 64% 1015.8 hPa - - - -
1788254205 21.67° C 64% 1015.7 hPa - - - -
1788253305 21.67° C 62% 1015.6 hPa - - - -
1788252405 21.67° C 62% 1015.6 hPa - - - -
1788251505 20.56° C 66% 1015.5 hPa - - - -
1788250605 21.11° C 63% 1015.3 hPa - - - -
1788249705 20.56° C 64% 1015.2 hPa - - - -
1788248804 21.11° C 63% 1015 hPa - - - -
1788247904 21.11° C 65% 1014.9 hPa - - - -
1788247004 20° C 69% 1014.8 hPa - - - -
1788246111 20.56° C 65% 1014.7 hPa - - - -
1788245204 21.11° C 64% 1014.5 hPa - - - -
1788244304 21.11° C 64% 1014.4 hPa - - - -
1788243404 21.11° C 64% 1014.2 hPa - - - -
1788242504 20.56° C 64% 1014.2 hPa - - - -
1788241603 20.56° C 64% 1014.1 hPa - - - -
1788240703 20.56° C 64% 1014 hPa - - - -
1788239803 20° C 65% 1014 hPa - - - -
1788238903 20° C 64% 1013.7 hPa - - - -
1788238003 20° C 65% 1013.7 hPa - - - -
1788237103 20.56° C 64% 1013.5 hPa - - - -
1788236203 20.56° C 65% 1013.4 hPa - - - -

* Rain since midnight (hover to see other rain measurements)
** Current wind speed in m/s (hover to see current wind gust speed)